Time,TemperatureF,DewpointF,PressureIn,WindDirection,WindDirectionDegrees,WindSpeedMPH,WindSpeedGustMPH,Humidity,HourlyPrecipIn,Conditions,Clouds,dailyrainin,SolarRadiationWatts/m^2,SoftwareType,DateUTC
2013-04-12 00:22:00,27.0,26.0,-100.00,ESE,104,1.0,4.0,96,0.00,,,0.04,0.000000,,2013-04-12 06:22:00,
2013-04-12 00:32:00,27.0,26.0,-100.00,ESE,104,1.0,4.0,96,0.00,,,0.04,0.000000,,2013-04-12 06:32:00,
2013-04-12 00:42:00,27.0,26.0,-100.00,ESE,104,1.0,4.0,96,0.00,,,0.04,0.000000,,2013-04-12 06:42:00,
2013-04-12 00:52:00,27.0,26.0,-100.00,ESE,104,1.0,4.0,96,0.00,,,0.04,0.000000,,2013-04-12 06:52:00,
2013-04-12 01:22:00,26.0,25.0,-100.00,ENE,64,2.0,3.0,95,0.00,,,0.04,0.000000,,2013-04-12 07:22:00,
2013-04-12 01:32:00,26.0,25.0,-100.00,ENE,64,2.0,3.0,95,0.00,,,0.04,0.000000,,2013-04-12 07:32:00,
2013-04-12 01:42:00,26.0,25.0,-100.00,ENE,64,2.0,3.0,95,0.00,,,0.04,0.000000,,2013-04-12 07:42:00,
2013-04-12 01:52:00,26.0,25.0,-100.00,ENE,64,2.0,3.0,95,0.00,,,0.04,0.000000,,2013-04-12 07:52:00,
2013-04-12 02:22:00,25.0,24.0,-100.00,NE,55,3.0,4.0,94,0.00,,,0.04,0.000000,,2013-04-12 08:22:00,
2013-04-12 02:32:00,25.0,24.0,-100.00,NE,55,3.0,4.0,94,0.00,,,0.04,0.000000,,2013-04-12 08:32:00,
2013-04-12 02:42:00,25.0,24.0,-100.00,NE,55,3.0,4.0,94,0.00,,,0.04,0.000000,,2013-04-12 08:42:00,
2013-04-12 02:52:00,25.0,24.0,-100.00,NE,55,3.0,4.0,94,0.00,,,0.04,0.000000,,2013-04-12 08:52:00,
2013-04-12 03:22:00,26.0,25.0,-100.00,East,86,2.0,3.0,95,0.00,,,-99.99,0.000000,,2013-04-12 09:22:00,
2013-04-12 03:33:00,26.0,25.0,-100.00,East,86,2.0,3.0,95,0.00,,,-99.99,0.000000,,2013-04-12 09:33:00,
2013-04-12 03:43:00,26.0,25.0,-100.00,East,86,2.0,3.0,95,0.00,,,-99.99,0.000000,,2013-04-12 09:43:00,
2013-04-12 03:52:00,26.0,25.0,-100.00,East,86,2.0,3.0,95,0.00,,,-99.99,0.000000,,2013-04-12 09:52:00,
2013-04-12 04:23:00,26.0,25.0,-100.00,SSE,161,2.0,3.0,96,0.00,,,0.04,0.000000,,2013-04-12 10:23:00,
2013-04-12 04:34:00,26.0,25.0,-100.00,SSE,161,2.0,3.0,96,0.00,,,0.04,0.000000,,2013-04-12 10:34:00,
2013-04-12 04:42:00,26.0,25.0,-100.00,SSE,161,2.0,3.0,96,0.00,,,0.04,0.000000,,2013-04-12 10:42:00,
2013-04-12 04:52:00,26.0,25.0,-100.00,SSE,161,2.0,3.0,96,0.00,,,0.04,0.000000,,2013-04-12 10:52:00,
2013-04-12 05:22:00,26.0,25.0,-100.00,WSW,255,3.0,4.0,96,0.00,,,0.04,0.000000,,2013-04-12 11:22:00,
2013-04-12 05:32:00,26.0,25.0,-100.00,WSW,255,3.0,4.0,96,0.00,,,0.04,0.000000,,2013-04-12 11:32:00,
2013-04-12 05:42:00,26.0,25.0,-100.00,WSW,255,3.0,4.0,96,0.00,,,0.04,0.000000,,2013-04-12 11:42:00,
2013-04-12 05:52:00,26.0,25.0,-100.00,WSW,255,3.0,4.0,96,0.00,,,0.04,0.000000,,2013-04-12 11:52:00,
2013-04-12 06:22:00,27.0,26.0,-100.00,WNW,286,5.0,7.0,97,0.00,,,0.04,0.000000,,2013-04-12 12:22:00,
2013-04-12 06:33:00,27.0,26.0,-100.00,WNW,286,5.0,7.0,97,0.00,,,0.04,0.000000,,2013-04-12 12:33:00,
2013-04-12 06:42:00,27.0,26.0,-100.00,WNW,286,5.0,7.0,97,0.00,,,0.04,0.000000,,2013-04-12 12:42:00,
2013-04-12 06:52:00,27.0,26.0,-100.00,WNW,286,5.0,7.0,97,0.00,,,0.04,0.000000,,2013-04-12 12:52:00,
2013-04-12 07:22:00,27.0,26.0,-100.00,WNW,282,5.0,8.0,96,0.00,,,0.04,1.000000,,2013-04-12 13:22:00,
2013-04-12 07:32:00,27.0,26.0,-100.00,WNW,282,5.0,8.0,96,0.00,,,0.04,1.000000,,2013-04-12 13:32:00,
2013-04-12 07:42:00,27.0,26.0,-100.00,WNW,282,5.0,8.0,96,0.00,,,0.04,1.000000,,2013-04-12 13:42:00,
2013-04-12 07:52:00,27.0,26.0,-100.00,WNW,282,5.0,8.0,96,0.00,,,0.04,1.000000,,2013-04-12 13:52:00,
2013-04-12 08:23:00,27.0,26.0,-100.00,West,265,4.0,7.0,96,0.00,,,0.04,9.000000,,2013-04-12 14:23:00,
2013-04-12 08:33:00,27.0,26.0,-100.00,West,265,4.0,7.0,96,0.00,,,0.04,9.000000,,2013-04-12 14:33:00,
2013-04-12 08:42:00,27.0,26.0,-100.00,West,265,4.0,7.0,96,0.00,,,0.04,9.000000,,2013-04-12 14:42:00,
2013-04-12 08:53:00,27.0,26.0,-100.00,West,265,4.0,7.0,96,0.00,,,0.04,9.000000,,2013-04-12 14:53:00,
2013-04-12 09:22:00,29.0,27.0,-100.00,West,262,5.0,10.0,93,0.00,,,-99.99,31.000000,,2013-04-12 15:22:00,
2013-04-12 09:33:00,29.0,27.0,-100.00,West,262,5.0,10.0,93,0.00,,,-99.99,31.000000,,2013-04-12 15:33:00,
2013-04-12 09:43:00,29.0,27.0,-100.00,West,262,5.0,10.0,93,0.00,,,-99.99,31.000000,,2013-04-12 15:43:00,
2013-04-12 09:53:00,29.0,27.0,-100.00,West,262,5.0,10.0,93,0.00,,,-99.99,31.000000,,2013-04-12 15:53:00,
2013-04-12 10:23:00,31.0,29.0,-100.00,WSW,256,8.0,12.0,91,0.00,,,-99.99,73.000000,,2013-04-12 16:23:00,
2013-04-12 10:33:00,31.0,29.0,-100.00,WSW,256,8.0,12.0,91,0.00,,,-99.99,73.000000,,2013-04-12 16:33:00,
2013-04-12 10:42:00,31.0,29.0,-100.00,WSW,256,8.0,12.0,91,0.00,,,-99.99,73.000000,,2013-04-12 16:42:00,
2013-04-12 10:52:00,31.0,29.0,-100.00,WSW,256,8.0,12.0,91,0.00,,,-99.99,73.000000,,2013-04-12 16:52:00,
2013-04-12 10:56:00,35.0,29.0,-100.00,West,272,10.0,17.0,78,0.04,,,0.05,610.000000,,2013-04-12 16:56:00,
2013-04-12 11:23:00,35.0,29.0,-100.00,West,272,10.0,17.0,78,0.04,,,0.05,610.000000,,2013-04-12 17:23:00,
2013-04-12 11:33:00,35.0,29.0,-100.00,West,272,10.0,17.0,78,0.04,,,0.05,610.000000,,2013-04-12 17:33:00,
2013-04-12 11:45:00,35.0,29.0,-100.00,West,272,10.0,17.0,78,0.04,,,0.05,610.000000,,2013-04-12 17:45:00,
2013-04-12 13:27:00,40.0,26.0,-100.00,WSW,251,12.0,25.0,56,0.03,,,0.31,655.000000,,2013-04-12 19:27:00,
2013-04-12 13:32:00,40.0,26.0,-100.00,WSW,251,12.0,25.0,56,0.03,,,0.31,655.000000,,2013-04-12 19:32:00,
2013-04-12 13:43:00,40.0,26.0,-100.00,WSW,251,12.0,25.0,56,0.03,,,0.31,655.000000,,2013-04-12 19:43:00,
2013-04-12 13:52:00,40.0,26.0,-100.00,WSW,251,12.0,25.0,56,0.03,,,0.31,655.000000,,2013-04-12 19:52:00,
2013-04-12 14:22:00,42.0,18.0,-100.00,West,269,8.0,20.0,38,0.00,,,0.31,727.000000,,2013-04-12 20:22:00,
2013-04-12 14:32:00,42.0,18.0,-100.00,West,269,8.0,20.0,38,0.00,,,0.31,727.000000,,2013-04-12 20:32:00,
2013-04-12 14:42:00,42.0,18.0,-100.00,West,269,8.0,20.0,38,0.00,,,0.31,727.000000,,2013-04-12 20:42:00,
2013-04-12 14:52:00,42.0,18.0,-100.00,West,269,8.0,20.0,38,0.00,,,0.31,727.000000,,2013-04-12 20:52:00,
2013-04-12 15:22:00,38.0,15.0,-100.00,West,268,9.0,20.0,39,0.00,,,0.31,304.000000,,2013-04-12 21:22:00,
2013-04-12 15:33:00,38.0,15.0,-100.00,West,268,9.0,20.0,39,0.00,,,0.31,304.000000,,2013-04-12 21:33:00,
2013-04-12 15:43:00,38.0,15.0,-100.00,West,268,9.0,20.0,39,0.00,,,0.31,304.000000,,2013-04-12 21:43:00,
2013-04-12 15:52:00,38.0,15.0,-100.00,West,268,9.0,20.0,39,0.00,,,0.31,304.000000,,2013-04-12 21:52:00,
2013-04-12 16:22:00,44.0,17.0,-100.00,West,267,6.0,21.0,33,0.00,,,0.31,728.000000,,2013-04-12 22:22:00,
2013-04-12 16:32:00,44.0,17.0,-100.00,West,267,6.0,21.0,33,0.00,,,0.31,728.000000,,2013-04-12 22:32:00,
2013-04-12 16:42:00,44.0,17.0,-100.00,West,267,6.0,21.0,33,0.00,,,0.31,728.000000,,2013-04-12 22:42:00,
2013-04-12 16:52:00,44.0,17.0,-100.00,West,267,6.0,21.0,33,0.00,,,0.31,728.000000,,2013-04-12 22:52:00,
2013-04-12 17:22:00,47.0,9.0,-100.00,WSW,258,10.0,19.0,21,0.00,,,0.31,671.000000,,2013-04-12 23:22:00,
2013-04-12 17:32:00,47.0,9.0,-100.00,WSW,258,10.0,19.0,21,0.00,,,0.31,671.000000,,2013-04-12 23:32:00,
2013-04-12 17:42:00,47.0,9.0,-100.00,WSW,258,10.0,19.0,21,0.00,,,0.31,671.000000,,2013-04-12 23:42:00,
2013-04-12 17:52:00,47.0,9.0,-100.00,WSW,258,10.0,19.0,21,0.00,,,0.31,671.000000,,2013-04-12 23:52:00,
2013-04-12 18:22:00,43.0,11.0,-100.00,West,262,9.0,23.0,27,0.00,,,0.31,480.000000,,2013-04-13 00:22:00,
2013-04-12 18:32:00,43.0,11.0,-100.00,West,262,9.0,23.0,27,0.00,,,0.31,480.000000,,2013-04-13 00:32:00,
2013-04-12 18:42:00,43.0,11.0,-100.00,West,262,9.0,23.0,27,0.00,,,0.31,480.000000,,2013-04-13 00:42:00,
2013-04-12 18:52:00,43.0,11.0,-100.00,West,262,9.0,23.0,27,0.00,,,0.31,480.000000,,2013-04-13 00:52:00,
2013-04-12 19:22:00,41.0,11.0,-100.00,West,260,7.0,21.0,29,0.00,,,0.31,168.000000,,2013-04-13 01:22:00,
2013-04-12 19:32:00,41.0,11.0,-100.00,West,260,7.0,21.0,29,0.00,,,0.31,168.000000,,2013-04-13 01:32:00,
2013-04-12 19:42:00,41.0,11.0,-100.00,West,260,7.0,21.0,29,0.00,,,0.31,168.000000,,2013-04-13 01:42:00,
2013-04-12 19:52:00,41.0,11.0,-100.00,West,260,7.0,21.0,29,0.00,,,0.31,168.000000,,2013-04-13 01:52:00,
2013-04-12 20:22:00,36.0,11.0,-100.00,WNW,298,6.0,12.0,35,0.00,,,0.31,53.000000,,2013-04-13 02:22:00,
2013-04-12 20:32:00,36.0,11.0,-100.00,WNW,298,6.0,12.0,35,0.00,,,0.31,53.000000,,2013-04-13 02:32:00,
2013-04-12 20:42:00,36.0,11.0,-100.00,WNW,298,6.0,12.0,35,0.00,,,0.31,53.000000,,2013-04-13 02:42:00,
2013-04-12 20:52:00,36.0,11.0,-100.00,WNW,298,6.0,12.0,35,0.00,,,0.31,53.000000,,2013-04-13 02:52:00,
2013-04-12 21:23:00,32.0,12.0,-100.00,ENE,78,3.0,7.0,43,0.00,,,0.31,0.000000,,2013-04-13 03:23:00,
2013-04-12 21:33:00,32.0,12.0,-100.00,ENE,78,3.0,7.0,43,0.00,,,0.31,0.000000,,2013-04-13 03:33:00,
2013-04-12 21:42:00,32.0,12.0,-100.00,ENE,78,3.0,7.0,43,0.00,,,0.31,0.000000,,2013-04-13 03:42:00,
2013-04-12 21:53:00,32.0,12.0,-100.00,ENE,78,3.0,7.0,43,0.00,,,0.31,0.000000,,2013-04-13 03:53:00,
2013-04-12 22:23:00,28.0,14.0,-100.00,East,89,5.0,9.0,56,0.00,,,0.31,0.000000,,2013-04-13 04:23:00,
2013-04-12 22:33:00,28.0,14.0,-100.00,East,89,5.0,9.0,56,0.00,,,0.31,0.000000,,2013-04-13 04:33:00,
2013-04-12 22:42:00,28.0,14.0,-100.00,East,89,5.0,9.0,56,0.00,,,0.31,0.000000,,2013-04-13 04:42:00,
2013-04-12 22:53:00,28.0,14.0,-100.00,East,89,5.0,9.0,56,0.00,,,0.31,0.000000,,2013-04-13 04:53:00,
2013-04-12 23:22:00,28.0,14.0,-100.00,East,80,5.0,10.0,56,0.00,,,0.31,0.000000,,2013-04-13 05:22:00,
2013-04-12 23:32:00,28.0,14.0,-100.00,East,80,5.0,10.0,56,0.00,,,0.31,0.000000,,2013-04-13 05:32:00,
2013-04-12 23:43:00,28.0,14.0,-100.00,East,80,5.0,10.0,56,0.00,,,0.31,0.000000,,2013-04-13 05:43:00,
2013-04-12 23:52:00,28.0,14.0,-100.00,East,80,5.0,10.0,56,0.00,,,0.31,0.000000,,2013-04-13 05:52:00,